sensor_id;sensor_type;location;lat;lon;timestamp;temperature;humidity
4828;DHT22;2428;48.732;9.148;2023-04-24T00:02:04;10.40;99.90
4828;DHT22;2428;48.732;9.148;2023-04-24T00:04:30;10.40;99.90
4828;DHT22;2428;48.732;9.148;2023-04-24T00:06:57;10.40;99.90
4828;DHT22;2428;48.732;9.148;2023-04-24T00:09:25;10.40;99.90
4828;DHT22;2428;48.732;9.148;2023-04-24T00:11:51;10.40;99.90
4828;DHT22;2428;48.732;9.148;2023-04-24T00:14:17;10.40;99.90
4828;DHT22;2428;48.732;9.148;2023-04-24T00:16:43;10.40;99.90
4828;DHT22;2428;48.732;9.148;2023-04-24T00:19:08;10.40;99.90
4828;DHT22;2428;48.732;9.148;2023-04-24T00:21:34;10.40;99.90
4828;DHT22;2428;48.732;9.148;2023-04-24T00:24:00;10.40;99.90
4828;DHT22;2428;48.732;9.148;2023-04-24T00:26:25;10.40;99.90
4828;DHT22;2428;48.732;9.148;2023-04-24T00:28:51;10.40;99.90
4828;DHT22;2428;48.732;9.148;2023-04-24T00:31:17;10.40;99.90
4828;DHT22;2428;48.732;9.148;2023-04-24T00:33:42;10.50;99.90
4828;DHT22;2428;48.732;9.148;2023-04-24T00:36:08;10.50;99.90
4828;DHT22;2428;48.732;9.148;2023-04-24T00:38:33;10.50;99.90
4828;DHT22;2428;48.732;9.148;2023-04-24T00:40:59;10.50;99.90
4828;DHT22;2428;48.732;9.148;2023-04-24T00:43:25;10.50;99.90
4828;DHT22;2428;48.732;9.148;2023-04-24T00:45:50;10.50;99.90
4828;DHT22;2428;48.732;9.148;2023-04-24T00:48:16;10.50;99.90
4828;DHT22;2428;48.732;9.148;2023-04-24T00:50:42;10.50;99.90
4828;DHT22;2428;48.732;9.148;2023-04-24T00:53:08;10.50;99.90
4828;DHT22;2428;48.732;9.148;2023-04-24T00:55:34;10.60;99.90
4828;DHT22;2428;48.732;9.148;2023-04-24T00:58:00;10.60;99.90
4828;DHT22;2428;48.732;9.148;2023-04-24T01:00:26;10.60;99.90
4828;DHT22;2428;48.732;9.148;2023-04-24T01:02:52;10.60;99.90
4828;DHT22;2428;48.732;9.148;2023-04-24T01:05:18;10.60;99.90
4828;DHT22;2428;48.732;9.148;2023-04-24T01:07:45;10.60;99.90
4828;DHT22;2428;48.732;9.148;2023-04-24T01:10:13;10.60;99.90
4828;DHT22;2428;48.732;9.148;2023-04-24T01:12:40;10.60;99.90
4828;DHT22;2428;48.732;9.148;2023-04-24T01:15:06;10.60;99.90
4828;DHT22;2428;48.732;9.148;2023-04-24T01:17:32;10.60;99.90
4828;DHT22;2428;48.732;9.148;2023-04-24T01:19:59;10.70;99.90
4828;DHT22;2428;48.732;9.148;2023-04-24T01:22:26;10.70;99.90
4828;DHT22;2428;48.732;9.148;2023-04-24T01:24:52;10.70;99.90
4828;DHT22;2428;48.732;9.148;2023-04-24T01:27:19;10.70;99.90
4828;DHT22;2428;48.732;9.148;2023-04-24T01:29:45;10.70;99.90
4828;DHT22;2428;48.732;9.148;2023-04-24T01:32:13;10.60;99.90
4828;DHT22;2428;48.732;9.148;2023-04-24T01:34:39;10.60;99.90
4828;DHT22;2428;48.732;9.148;2023-04-24T01:37:05;10.60;99.90
4828;DHT22;2428;48.732;9.148;2023-04-24T01:39:30;10.60;99.90
4828;DHT22;2428;48.732;9.148;2023-04-24T01:41:56;10.60;99.90
4828;DHT22;2428;48.732;9.148;2023-04-24T01:44:23;10.60;99.90
4828;DHT22;2428;48.732;9.148;2023-04-24T01:46:48;10.60;99.90
4828;DHT22;2428;48.732;9.148;2023-04-24T01:49:14;10.50;99.90
4828;DHT22;2428;48.732;9.148;2023-04-24T01:51:40;10.60;99.90
4828;DHT22;2428;48.732;9.148;2023-04-24T01:54:05;10.60;99.90
4828;DHT22;2428;48.732;9.148;2023-04-24T01:56:33;10.60;99.90
4828;DHT22;2428;48.732;9.148;2023-04-24T01:59:00;10.60;99.90
4828;DHT22;2428;48.732;9.148;2023-04-24T02:01:26;10.50;99.90
4828;DHT22;2428;48.732;9.148;2023-04-24T02:03:51;10.50;99.90
4828;DHT22;2428;48.732;9.148;2023-04-24T02:06:17;10.50;99.90
4828;DHT22;2428;48.732;9.148;2023-04-24T02:08:43;10.60;99.90
4828;DHT22;2428;48.732;9.148;2023-04-24T02:11:09;10.60;99.90
4828;DHT22;2428;48.732;9.148;2023-04-24T02:13:35;10.50;99.90
4828;DHT22;2428;48.732;9.148;2023-04-24T02:16:01;10.50;99.90
4828;DHT22;2428;48.732;9.148;2023-04-24T02:18:26;10.50;99.90
4828;DHT22;2428;48.732;9.148;2023-04-24T02:20:52;10.60;99.90
4828;DHT22;2428;48.732;9.148;2023-04-24T02:23:18;10.50;99.90
4828;DHT22;2428;48.732;9.148;2023-04-24T02:25:43;10.60;99.90
4828;DHT22;2428;48.732;9.148;2023-04-24T02:28:09;10.50;99.90
4828;DHT22;2428;48.732;9.148;2023-04-24T02:30:34;10.40;99.90
4828;DHT22;2428;48.732;9.148;2023-04-24T02:33:00;10.40;99.90
4828;DHT22;2428;48.732;9.148;2023-04-24T02:35:25;10.40;99.90
4828;DHT22;2428;48.732;9.148;2023-04-24T02:37:51;10.40;99.90
4828;DHT22;2428;48.732;9.148;2023-04-24T02:40:16;10.40;99.90
4828;DHT22;2428;48.732;9.148;2023-04-24T02:42:42;10.30;99.90
4828;DHT22;2428;48.732;9.148;2023-04-24T02:45:08;10.30;99.90
4828;DHT22;2428;48.732;9.148;2023-04-24T02:47:34;10.30;99.90
4828;DHT22;2428;48.732;9.148;2023-04-24T02:49:59;10.30;99.90
4828;DHT22;2428;48.732;9.148;2023-04-24T02:52:25;10.40;99.90
4828;DHT22;2428;48.732;9.148;2023-04-24T02:54:50;10.40;99.90
4828;DHT22;2428;48.732;9.148;2023-04-24T02:57:16;10.30;99.90
4828;DHT22;2428;48.732;9.148;2023-04-24T02:59:42;10.30;99.90
4828;DHT22;2428;48.732;9.148;2023-04-24T03:02:07;10.20;99.90
4828;DHT22;2428;48.732;9.148;2023-04-24T03:04:33;10.20;99.90
4828;DHT22;2428;48.732;9.148;2023-04-24T03:06:58;10.10;99.90
4828;DHT22;2428;48.732;9.148;2023-04-24T03:09:24;10.10;99.90
4828;DHT22;2428;48.732;9.148;2023-04-24T03:11:50;10.20;99.90
4828;DHT22;2428;48.732;9.148;2023-04-24T03:14:16;10.20;99.90
4828;DHT22;2428;48.732;9.148;2023-04-24T03:16:42;10.10;99.90
4828;DHT22;2428;48.732;9.148;2023-04-24T03:19:07;10.00;99.90
4828;DHT22;2428;48.732;9.148;2023-04-24T03:21:33;10.00;99.90
4828;DHT22;2428;48.732;9.148;2023-04-24T03:23:58;10.00;99.90
4828;DHT22;2428;48.732;9.148;2023-04-24T03:26:24;10.00;99.90
4828;DHT22;2428;48.732;9.148;2023-04-24T03:28:50;9.90;99.90
4828;DHT22;2428;48.732;9.148;2023-04-24T03:31:16;9.90;99.90
4828;DHT22;2428;48.732;9.148;2023-04-24T03:33:42;9.90;99.90
4828;DHT22;2428;48.732;9.148;2023-04-24T03:36:07;9.90;99.90
4828;DHT22;2428;48.732;9.148;2023-04-24T03:38:33;9.90;99.90
4828;DHT22;2428;48.732;9.148;2023-04-24T03:40:58;9.90;99.90
4828;DHT22;2428;48.732;9.148;2023-04-24T03:43:24;9.90;99.90
4828;DHT22;2428;48.732;9.148;2023-04-24T03:45:50;9.90;99.90
4828;DHT22;2428;48.732;9.148;2023-04-24T03:48:16;9.90;99.90
4828;DHT22;2428;48.732;9.148;2023-04-24T03:50:41;10.00;99.90
4828;DHT22;2428;48.732;9.148;2023-04-24T03:53:07;10.00;99.90
4828;DHT22;2428;48.732;9.148;2023-04-24T03:55:33;10.00;99.90
4828;DHT22;2428;48.732;9.148;2023-04-24T03:57:58;10.00;99.90
4828;DHT22;2428;48.732;9.148;2023-04-24T04:00:24;10.00;99.90
4828;DHT22;2428;48.732;9.148;2023-04-24T04:02:51;10.10;99.90
4828;DHT22;2428;48.732;9.148;2023-04-24T04:05:16;10.10;99.90
4828;DHT22;2428;48.732;9.148;2023-04-24T04:07:42;10.00;99.90
4828;DHT22;2428;48.732;9.148;2023-04-24T04:10:08;10.00;99.90
4828;DHT22;2428;48.732;9.148;2023-04-24T04:12:33;10.00;99.90
4828;DHT22;2428;48.732;9.148;2023-04-24T04:14:59;10.00;99.90
4828;DHT22;2428;48.732;9.148;2023-04-24T04:17:25;10.00;99.90
4828;DHT22;2428;48.732;9.148;2023-04-24T04:19:50;10.00;99.90
4828;DHT22;2428;48.732;9.148;2023-04-24T04:22:16;10.00;99.90
4828;DHT22;2428;48.732;9.148;2023-04-24T04:24:41;10.00;99.90
4828;DHT22;2428;48.732;9.148;2023-04-24T04:27:08;10.00;99.90
4828;DHT22;2428;48.732;9.148;2023-04-24T04:29:34;9.90;99.90
4828;DHT22;2428;48.732;9.148;2023-04-24T04:32:00;9.90;99.90
4828;DHT22;2428;48.732;9.148;2023-04-24T04:34:26;9.70;99.90
4828;DHT22;2428;48.732;9.148;2023-04-24T04:36:52;9.50;99.90
4828;DHT22;2428;48.732;9.148;2023-04-24T04:39:18;9.30;99.90
4828;DHT22;2428;48.732;9.148;2023-04-24T04:41:44;9.10;99.90
4828;DHT22;2428;48.732;9.148;2023-04-24T04:44:12;9.10;99.90
4828;DHT22;2428;48.732;9.148;2023-04-24T04:46:38;9.00;99.90
4828;DHT22;2428;48.732;9.148;2023-04-24T04:49:04;8.90;99.90
4828;DHT22;2428;48.732;9.148;2023-04-24T04:51:29;8.80;99.90
4828;DHT22;2428;48.732;9.148;2023-04-24T04:53:56;8.80;99.90
4828;DHT22;2428;48.732;9.148;2023-04-24T04:56:21;8.80;99.90
4828;DHT22;2428;48.732;9.148;2023-04-24T04:58:47;8.80;99.90
4828;DHT22;2428;48.732;9.148;2023-04-24T05:01:13;8.80;99.90
4828;DHT22;2428;48.732;9.148;2023-04-24T05:03:39;8.90;99.90
4828;DHT22;2428;48.732;9.148;2023-04-24T05:06:05;8.90;99.90
4828;DHT22;2428;48.732;9.148;2023-04-24T05:08:31;8.90;99.90
4828;DHT22;2428;48.732;9.148;2023-04-24T05:10:56;8.90;99.90
4828;DHT22;2428;48.732;9.148;2023-04-24T05:13:22;9.00;99.90
4828;DHT22;2428;48.732;9.148;2023-04-24T05:15:48;9.00;99.90
4828;DHT22;2428;48.732;9.148;2023-04-24T05:18:13;9.00;99.90
4828;DHT22;2428;48.732;9.148;2023-04-24T05:20:39;9.00;99.90
4828;DHT22;2428;48.732;9.148;2023-04-24T05:23:04;9.00;99.90
4828;DHT22;2428;48.732;9.148;2023-04-24T05:25:30;9.00;99.90
4828;DHT22;2428;48.732;9.148;2023-04-24T05:28:00;8.90;99.90
4828;DHT22;2428;48.732;9.148;2023-04-24T05:30:26;8.90;99.90
4828;DHT22;2428;48.732;9.148;2023-04-24T05:32:52;8.90;99.90
4828;DHT22;2428;48.732;9.148;2023-04-24T05:35:17;9.00;99.90
4828;DHT22;2428;48.732;9.148;2023-04-24T05:37:44;8.90;99.90
4828;DHT22;2428;48.732;9.148;2023-04-24T05:40:10;8.90;99.90
4828;DHT22;2428;48.732;9.148;2023-04-24T05:42:36;8.90;99.90
4828;DHT22;2428;48.732;9.148;2023-04-24T05:45:02;9.00;99.90
4828;DHT22;2428;48.732;9.148;2023-04-24T05:47:28;9.00;99.90
4828;DHT22;2428;48.732;9.148;2023-04-24T05:49:54;9.00;99.90
4828;DHT22;2428;48.732;9.148;2023-04-24T05:52:19;9.00;99.90
4828;DHT22;2428;48.732;9.148;2023-04-24T05:54:45;9.10;99.90
4828;DHT22;2428;48.732;9.148;2023-04-24T05:57:11;9.10;99.90
4828;DHT22;2428;48.732;9.148;2023-04-24T05:59:37;9.10;99.90
4828;DHT22;2428;48.732;9.148;2023-04-24T06:02:06;9.10;99.90
4828;DHT22;2428;48.732;9.148;2023-04-24T06:04:32;9.10;99.90
4828;DHT22;2428;48.732;9.148;2023-04-24T06:06:59;9.10;99.90
4828;DHT22;2428;48.732;9.148;2023-04-24T06:09:25;9.20;99.90
4828;DHT22;2428;48.732;9.148;2023-04-24T06:11:51;9.20;99.90
4828;DHT22;2428;48.732;9.148;2023-04-24T06:14:19;9.30;99.90
4828;DHT22;2428;48.732;9.148;2023-04-24T06:16:45;9.40;99.90
4828;DHT22;2428;48.732;9.148;2023-04-24T06:19:10;9.40;99.90
4828;DHT22;2428;48.732;9.148;2023-04-24T06:21:36;9.50;99.90
4828;DHT22;2428;48.732;9.148;2023-04-24T06:24:03;9.50;99.90
4828;DHT22;2428;48.732;9.148;2023-04-24T06:26:30;9.50;99.90
4828;DHT22;2428;48.732;9.148;2023-04-24T06:28:55;9.50;99.90
4828;DHT22;2428;48.732;9.148;2023-04-24T06:31:21;9.40;99.90
4828;DHT22;2428;48.732;9.148;2023-04-24T06:33:48;9.50;99.90
4828;DHT22;2428;48.732;9.148;2023-04-24T06:36:14;9.50;99.90
4828;DHT22;2428;48.732;9.148;2023-04-24T06:38:41;9.50;99.90
4828;DHT22;2428;48.732;9.148;2023-04-24T06:41:07;9.60;99.90
4828;DHT22;2428;48.732;9.148;2023-04-24T06:43:33;9.70;99.90
4828;DHT22;2428;48.732;9.148;2023-04-24T06:45:59;9.80;99.90
4828;DHT22;2428;48.732;9.148;2023-04-24T06:48:26;9.90;99.90
4828;DHT22;2428;48.732;9.148;2023-04-24T06:50:52;9.90;99.90
4828;DHT22;2428;48.732;9.148;2023-04-24T06:53:18;9.90;99.90
4828;DHT22;2428;48.732;9.148;2023-04-24T06:55:43;10.00;99.90
4828;DHT22;2428;48.732;9.148;2023-04-24T06:58:11;10.10;99.90
4828;DHT22;2428;48.732;9.148;2023-04-24T07:00:37;10.10;99.90
4828;DHT22;2428;48.732;9.148;2023-04-24T07:03:03;10.10;99.90
4828;DHT22;2428;48.732;9.148;2023-04-24T07:05:31;10.20;99.90
4828;DHT22;2428;48.732;9.148;2023-04-24T07:07:56;10.30;99.90
4828;DHT22;2428;48.732;9.148;2023-04-24T07:10:24;10.40;99.90
4828;DHT22;2428;48.732;9.148;2023-04-24T07:12:49;10.50;99.90
4828;DHT22;2428;48.732;9.148;2023-04-24T07:15:15;10.50;99.90
4828;DHT22;2428;48.732;9.148;2023-04-24T07:17:41;10.40;99.90
4828;DHT22;2428;48.732;9.148;2023-04-24T07:20:10;10.30;99.90
4828;DHT22;2428;48.732;9.148;2023-04-24T07:22:37;10.20;99.90
4828;DHT22;2428;48.732;9.148;2023-04-24T07:25:03;10.20;99.90
4828;DHT22;2428;48.732;9.148;2023-04-24T07:27:28;10.10;99.90
4828;DHT22;2428;48.732;9.148;2023-04-24T07:29:54;9.90;99.90
4828;DHT22;2428;48.732;9.148;2023-04-24T07:32:20;9.90;99.90
4828;DHT22;2428;48.732;9.148;2023-04-24T07:34:45;10.00;99.90
4828;DHT22;2428;48.732;9.148;2023-04-24T07:37:11;9.90;99.90
4828;DHT22;2428;48.732;9.148;2023-04-24T07:39:37;9.90;99.90
4828;DHT22;2428;48.732;9.148;2023-04-24T07:42:02;10.00;99.90
4828;DHT22;2428;48.732;9.148;2023-04-24T07:44:28;10.00;99.90
4828;DHT22;2428;48.732;9.148;2023-04-24T07:46:54;10.10;99.90
4828;DHT22;2428;48.732;9.148;2023-04-24T07:49:20;10.20;99.90
4828;DHT22;2428;48.732;9.148;2023-04-24T07:51:46;10.30;99.90
4828;DHT22;2428;48.732;9.148;2023-04-24T07:54:12;10.40;99.90
4828;DHT22;2428;48.732;9.148;2023-04-24T07:56:37;10.50;99.90
4828;DHT22;2428;48.732;9.148;2023-04-24T07:59:08;10.40;99.90
4828;DHT22;2428;48.732;9.148;2023-04-24T08:01:35;10.30;99.90
4828;DHT22;2428;48.732;9.148;2023-04-24T08:04:01;10.40;99.90
4828;DHT22;2428;48.732;9.148;2023-04-24T08:06:27;10.50;99.90
4828;DHT22;2428;48.732;9.148;2023-04-24T08:08:57;10.50;99.90
4828;DHT22;2428;48.732;9.148;2023-04-24T08:11:23;10.30;99.90
4828;DHT22;2428;48.732;9.148;2023-04-24T08:13:49;10.20;99.90
4828;DHT22;2428;48.732;9.148;2023-04-24T08:16:14;10.10;99.90
4828;DHT22;2428;48.732;9.148;2023-04-24T08:18:40;10.10;99.90
4828;DHT22;2428;48.732;9.148;2023-04-24T08:21:06;10.20;99.90
4828;DHT22;2428;48.732;9.148;2023-04-24T08:23:32;10.30;99.90
4828;DHT22;2428;48.732;9.148;2023-04-24T08:25:57;10.30;99.90
4828;DHT22;2428;48.732;9.148;2023-04-24T08:28:23;10.30;99.90
4828;DHT22;2428;48.732;9.148;2023-04-24T08:30:49;10.20;99.90
4828;DHT22;2428;48.732;9.148;2023-04-24T08:33:20;10.30;99.90
4828;DHT22;2428;48.732;9.148;2023-04-24T08:35:45;10.30;99.90
4828;DHT22;2428;48.732;9.148;2023-04-24T08:38:11;10.40;99.90
4828;DHT22;2428;48.732;9.148;2023-04-24T08:40:37;10.50;99.90
4828;DHT22;2428;48.732;9.148;2023-04-24T08:43:03;10.50;99.90
4828;DHT22;2428;48.732;9.148;2023-04-24T08:45:29;10.50;99.90
4828;DHT22;2428;48.732;9.148;2023-04-24T08:47:55;10.70;99.90
4828;DHT22;2428;48.732;9.148;2023-04-24T08:50:22;10.80;99.90
4828;DHT22;2428;48.732;9.148;2023-04-24T08:52:50;10.90;99.90
4828;DHT22;2428;48.732;9.148;2023-04-24T08:55:16;10.90;99.90
4828;DHT22;2428;48.732;9.148;2023-04-24T08:57:48;10.90;99.90
4828;DHT22;2428;48.732;9.148;2023-04-24T09:00:15;10.80;99.90
4828;DHT22;2428;48.732;9.148;2023-04-24T09:02:42;10.70;99.90
4828;DHT22;2428;48.732;9.148;2023-04-24T09:05:10;10.60;99.90
4828;DHT22;2428;48.732;9.148;2023-04-24T09:07:38;10.70;99.90
4828;DHT22;2428;48.732;9.148;2023-04-24T09:10:05;10.70;99.90
4828;DHT22;2428;48.732;9.148;2023-04-24T09:12:32;10.80;99.90
4828;DHT22;2428;48.732;9.148;2023-04-24T09:14:58;10.70;99.90
4828;DHT22;2428;48.732;9.148;2023-04-24T09:17:24;10.90;99.90
4828;DHT22;2428;48.732;9.148;2023-04-24T09:19:52;10.80;99.90
4828;DHT22;2428;48.732;9.148;2023-04-24T09:22:18;10.80;99.90
4828;DHT22;2428;48.732;9.148;2023-04-24T09:24:45;10.80;99.90
4828;DHT22;2428;48.732;9.148;2023-04-24T09:27:11;10.70;99.90
4828;DHT22;2428;48.732;9.148;2023-04-24T09:29:38;10.60;99.90
4828;DHT22;2428;48.732;9.148;2023-04-24T09:32:20;10.60;99.90
4828;DHT22;2428;48.732;9.148;2023-04-24T09:37:41;10.90;99.90
4828;DHT22;2428;48.732;9.148;2023-04-24T09:42:33;11.40;99.90
4828;DHT22;2428;48.732;9.148;2023-04-24T09:44:59;11.70;99.90
4828;DHT22;2428;48.732;9.148;2023-04-24T09:47:24;11.60;99.90
4828;DHT22;2428;48.732;9.148;2023-04-24T09:49:50;11.70;99.90
4828;DHT22;2428;48.732;9.148;2023-04-24T09:52:15;11.40;99.90
4828;DHT22;2428;48.732;9.148;2023-04-24T09:54:41;11.30;99.90
4828;DHT22;2428;48.732;9.148;2023-04-24T09:57:08;11.10;99.90
4828;DHT22;2428;48.732;9.148;2023-04-24T09:59:34;11.10;99.90
4828;DHT22;2428;48.732;9.148;2023-04-24T10:02:00;11.10;99.90
4828;DHT22;2428;48.732;9.148;2023-04-24T10:04:27;11.20;99.90
4828;DHT22;2428;48.732;9.148;2023-04-24T10:06:55;11.00;99.90
4828;DHT22;2428;48.732;9.148;2023-04-24T10:09:23;10.90;99.90
4828;DHT22;2428;48.732;9.148;2023-04-24T10:11:50;11.20;99.90
4828;DHT22;2428;48.732;9.148;2023-04-24T10:14:21;11.90;99.90
4828;DHT22;2428;48.732;9.148;2023-04-24T10:16:48;12.10;99.90
4828;DHT22;2428;48.732;9.148;2023-04-24T10:19:14;12.50;99.90
4828;DHT22;2428;48.732;9.148;2023-04-24T10:21:42;13.30;99.90
4828;DHT22;2428;48.732;9.148;2023-04-24T10:24:12;13.50;99.90
4828;DHT22;2428;48.732;9.148;2023-04-24T10:26:38;13.10;99.90
4828;DHT22;2428;48.732;9.148;2023-04-24T10:29:05;12.50;99.90
4828;DHT22;2428;48.732;9.148;2023-04-24T10:31:41;13.10;99.90
4828;DHT22;2428;48.732;9.148;2023-04-24T10:34:09;13.70;99.90
4828;DHT22;2428;48.732;9.148;2023-04-24T10:36:37;13.10;99.90
4828;DHT22;2428;48.732;9.148;2023-04-24T10:39:07;12.50;99.90
4828;DHT22;2428;48.732;9.148;2023-04-24T10:41:37;12.30;99.90
4828;DHT22;2428;48.732;9.148;2023-04-24T10:44:14;12.70;99.90
4828;DHT22;2428;48.732;9.148;2023-04-24T10:46:43;12.60;99.90
4828;DHT22;2428;48.732;9.148;2023-04-24T10:49:09;12.10;99.90
4828;DHT22;2428;48.732;9.148;2023-04-24T10:51:48;11.60;99.90
4828;DHT22;2428;48.732;9.148;2023-04-24T10:57:25;11.00;99.90
4828;DHT22;2428;48.732;9.148;2023-04-24T10:59:39;11.10;99.90
4828;DHT22;2428;48.732;9.148;2023-04-24T11:02:07;11.00;99.90
4828;DHT22;2428;48.732;9.148;2023-04-24T11:04:33;10.80;99.90
4828;DHT22;2428;48.732;9.148;2023-04-24T11:07:00;10.80;99.90
4828;DHT22;2428;48.732;9.148;2023-04-24T11:09:27;10.80;99.90
4828;DHT22;2428;48.732;9.148;2023-04-24T11:12:12;10.80;99.90
4828;DHT22;2428;48.732;9.148;2023-04-24T11:17:33;10.70;99.90
4828;DHT22;2428;48.732;9.148;2023-04-24T11:20:16;10.60;99.90
4828;DHT22;2428;48.732;9.148;2023-04-24T11:22:41;10.60;99.90
4828;DHT22;2428;48.732;9.148;2023-04-24T11:25:08;10.60;99.90
4828;DHT22;2428;48.732;9.148;2023-04-24T11:27:42;10.70;99.90
4828;DHT22;2428;48.732;9.148;2023-04-24T11:30:10;10.80;99.90
4828;DHT22;2428;48.732;9.148;2023-04-24T11:32:40;11.10;99.90
4828;DHT22;2428;48.732;9.148;2023-04-24T11:35:22;11.40;99.90
4828;DHT22;2428;48.732;9.148;2023-04-24T11:37:54;12.00;99.90
4828;DHT22;2428;48.732;9.148;2023-04-24T11:40:20;11.90;99.90
4828;DHT22;2428;48.732;9.148;2023-04-24T11:42:49;12.00;99.90
4828;DHT22;2428;48.732;9.148;2023-04-24T11:45:23;11.40;99.90
4828;DHT22;2428;48.732;9.148;2023-04-24T11:47:49;11.20;99.90
4828;DHT22;2428;48.732;9.148;2023-04-24T11:50:17;11.00;99.90
4828;DHT22;2428;48.732;9.148;2023-04-24T11:52:45;10.60;99.90
4828;DHT22;2428;48.732;9.148;2023-04-24T11:57:43;10.70;99.90
4828;DHT22;2428;48.732;9.148;2023-04-24T12:00:16;11.00;99.90
4828;DHT22;2428;48.732;9.148;2023-04-24T12:02:42;11.30;99.90
4828;DHT22;2428;48.732;9.148;2023-04-24T12:05:08;11.50;99.90
4828;DHT22;2428;48.732;9.148;2023-04-24T12:07:41;11.60;99.90
4828;DHT22;2428;48.732;9.148;2023-04-24T12:10:10;11.80;99.90
4828;DHT22;2428;48.732;9.148;2023-04-24T12:12:35;11.40;99.90
4828;DHT22;2428;48.732;9.148;2023-04-24T12:15:06;11.20;99.90
4828;DHT22;2428;48.732;9.148;2023-04-24T12:17:33;11.00;99.90
4828;DHT22;2428;48.732;9.148;2023-04-24T12:19:59;10.80;99.90
4828;DHT22;2428;48.732;9.148;2023-04-24T12:22:26;10.70;99.90
4828;DHT22;2428;48.732;9.148;2023-04-24T12:25:03;10.60;99.90
4828;DHT22;2428;48.732;9.148;2023-04-24T12:27:33;10.70;99.90
4828;DHT22;2428;48.732;9.148;2023-04-24T12:30:01;10.70;99.90
4828;DHT22;2428;48.732;9.148;2023-04-24T12:32:27;10.70;99.90
4828;DHT22;2428;48.732;9.148;2023-04-24T12:34:54;10.80;99.90
4828;DHT22;2428;48.732;9.148;2023-04-24T12:37:22;10.80;99.90
4828;DHT22;2428;48.732;9.148;2023-04-24T12:40:08;10.90;99.90
4828;DHT22;2428;48.732;9.148;2023-04-24T12:42:35;10.80;99.90
4828;DHT22;2428;48.732;9.148;2023-04-24T12:45:05;10.90;99.90
4828;DHT22;2428;48.732;9.148;2023-04-24T12:47:32;10.90;99.90
4828;DHT22;2428;48.732;9.148;2023-04-24T12:49:58;10.90;99.90
4828;DHT22;2428;48.732;9.148;2023-04-24T12:52:25;10.80;99.90
4828;DHT22;2428;48.732;9.148;2023-04-24T12:54:55;10.70;99.90
4828;DHT22;2428;48.732;9.148;2023-04-24T12:57:23;10.50;99.90
4828;DHT22;2428;48.732;9.148;2023-04-24T12:59:49;10.40;99.90
4828;DHT22;2428;48.732;9.148;2023-04-24T13:02:16;10.30;99.90
4828;DHT22;2428;48.732;9.148;2023-04-24T13:04:45;10.30;99.90
4828;DHT22;2428;48.732;9.148;2023-04-24T13:07:12;10.30;99.90
4828;DHT22;2428;48.732;9.148;2023-04-24T13:09:38;10.20;99.90
4828;DHT22;2428;48.732;9.148;2023-04-24T13:12:03;10.20;99.90
4828;DHT22;2428;48.732;9.148;2023-04-24T13:14:31;10.20;99.90
4828;DHT22;2428;48.732;9.148;2023-04-24T13:16:56;9.90;99.90
4828;DHT22;2428;48.732;9.148;2023-04-24T13:19:24;9.80;99.90
4828;DHT22;2428;48.732;9.148;2023-04-24T13:21:50;9.80;99.90
4828;DHT22;2428;48.732;9.148;2023-04-24T13:24:16;9.80;99.90
4828;DHT22;2428;48.732;9.148;2023-04-24T13:26:42;9.90;99.90
4828;DHT22;2428;48.732;9.148;2023-04-24T13:29:08;10.30;99.90
4828;DHT22;2428;48.732;9.148;2023-04-24T13:31:34;10.60;99.90
4828;DHT22;2428;48.732;9.148;2023-04-24T13:33:59;10.70;99.90
4828;DHT22;2428;48.732;9.148;2023-04-24T13:36:25;10.80;99.90
4828;DHT22;2428;48.732;9.148;2023-04-24T13:38:51;10.70;99.90
4828;DHT22;2428;48.732;9.148;2023-04-24T13:41:16;10.70;99.90
4828;DHT22;2428;48.732;9.148;2023-04-24T13:43:42;10.60;99.90
4828;DHT22;2428;48.732;9.148;2023-04-24T13:46:08;10.50;99.90
4828;DHT22;2428;48.732;9.148;2023-04-24T13:48:34;10.40;99.90
4828;DHT22;2428;48.732;9.148;2023-04-24T13:51:00;10.30;99.90
4828;DHT22;2428;48.732;9.148;2023-04-24T13:53:25;10.20;99.90
4828;DHT22;2428;48.732;9.148;2023-04-24T13:55:51;10.00;99.90
4828;DHT22;2428;48.732;9.148;2023-04-24T13:58:17;9.90;99.90
4828;DHT22;2428;48.732;9.148;2023-04-24T14:00:42;9.70;99.90
4828;DHT22;2428;48.732;9.148;2023-04-24T14:03:08;9.80;99.90
4828;DHT22;2428;48.732;9.148;2023-04-24T14:05:34;10.00;99.90
4828;DHT22;2428;48.732;9.148;2023-04-24T14:07:59;10.30;99.90
4828;DHT22;2428;48.732;9.148;2023-04-24T14:10:25;10.60;99.90
4828;DHT22;2428;48.732;9.148;2023-04-24T14:12:52;10.60;99.90
4828;DHT22;2428;48.732;9.148;2023-04-24T14:15:18;10.40;99.90
4828;DHT22;2428;48.732;9.148;2023-04-24T14:17:44;10.30;99.90
4828;DHT22;2428;48.732;9.148;2023-04-24T14:20:10;10.20;99.90
4828;DHT22;2428;48.732;9.148;2023-04-24T14:22:36;10.10;99.90
4828;DHT22;2428;48.732;9.148;2023-04-24T14:25:01;9.90;99.90
4828;DHT22;2428;48.732;9.148;2023-04-24T14:27:27;9.70;99.90
4828;DHT22;2428;48.732;9.148;2023-04-24T14:29:52;9.50;99.90
4828;DHT22;2428;48.732;9.148;2023-04-24T14:32:18;9.40;99.90
4828;DHT22;2428;48.732;9.148;2023-04-24T14:34:44;9.30;99.90
4828;DHT22;2428;48.732;9.148;2023-04-24T14:37:09;9.60;99.90
4828;DHT22;2428;48.732;9.148;2023-04-24T14:39:35;10.00;99.90
4828;DHT22;2428;48.732;9.148;2023-04-24T14:42:00;10.40;99.90
4828;DHT22;2428;48.732;9.148;2023-04-24T14:44:26;10.60;99.90
4828;DHT22;2428;48.732;9.148;2023-04-24T14:46:52;10.70;99.90
4828;DHT22;2428;48.732;9.148;2023-04-24T14:49:18;10.40;99.90
4828;DHT22;2428;48.732;9.148;2023-04-24T14:51:44;10.40;99.90
4828;DHT22;2428;48.732;9.148;2023-04-24T14:54:09;10.30;99.90
4828;DHT22;2428;48.732;9.148;2023-04-24T14:56:35;10.20;99.90
4828;DHT22;2428;48.732;9.148;2023-04-24T14:59:01;10.30;99.90
4828;DHT22;2428;48.732;9.148;2023-04-24T15:01:27;10.70;99.90
4828;DHT22;2428;48.732;9.148;2023-04-24T15:03:53;11.10;99.90
4828;DHT22;2428;48.732;9.148;2023-04-24T15:06:18;11.30;99.90
4828;DHT22;2428;48.732;9.148;2023-04-24T15:08:45;11.10;99.90
4828;DHT22;2428;48.732;9.148;2023-04-24T15:11:11;11.00;99.90
4828;DHT22;2428;48.732;9.148;2023-04-24T15:13:37;10.80;99.90
4828;DHT22;2428;48.732;9.148;2023-04-24T15:16:02;10.70;99.90
4828;DHT22;2428;48.732;9.148;2023-04-24T15:18:28;10.70;99.90
4828;DHT22;2428;48.732;9.148;2023-04-24T15:20:55;10.60;99.90
4828;DHT22;2428;48.732;9.148;2023-04-24T15:23:20;10.60;99.90
4828;DHT22;2428;48.732;9.148;2023-04-24T15:25:46;10.50;99.90
4828;DHT22;2428;48.732;9.148;2023-04-24T15:28:12;10.50;99.90
4828;DHT22;2428;48.732;9.148;2023-04-24T15:30:38;10.40;99.90
4828;DHT22;2428;48.732;9.148;2023-04-24T15:33:03;10.40;99.90
4828;DHT22;2428;48.732;9.148;2023-04-24T15:35:29;10.40;99.90
4828;DHT22;2428;48.732;9.148;2023-04-24T15:37:55;10.50;99.90
4828;DHT22;2428;48.732;9.148;2023-04-24T15:40:21;10.40;99.90
4828;DHT22;2428;48.732;9.148;2023-04-24T15:42:47;10.30;99.90
4828;DHT22;2428;48.732;9.148;2023-04-24T15:45:12;10.00;99.90
4828;DHT22;2428;48.732;9.148;2023-04-24T15:47:38;10.00;99.90
4828;DHT22;2428;48.732;9.148;2023-04-24T15:50:04;10.00;99.90
4828;DHT22;2428;48.732;9.148;2023-04-24T15:52:30;9.90;99.90
4828;DHT22;2428;48.732;9.148;2023-04-24T15:54:56;9.90;99.90
4828;DHT22;2428;48.732;9.148;2023-04-24T15:57:22;10.00;99.90
4828;DHT22;2428;48.732;9.148;2023-04-24T15:59:47;10.10;99.90
4828;DHT22;2428;48.732;9.148;2023-04-24T16:02:13;10.10;99.90
4828;DHT22;2428;48.732;9.148;2023-04-24T16:04:46;10.10;99.90
4828;DHT22;2428;48.732;9.148;2023-04-24T16:07:13;10.20;99.90
4828;DHT22;2428;48.732;9.148;2023-04-24T16:09:39;10.30;99.90
4828;DHT22;2428;48.732;9.148;2023-04-24T16:12:05;10.40;99.90
4828;DHT22;2428;48.732;9.148;2023-04-24T16:14:31;10.40;99.90